createdAt,value
2018-07-02T00:00:50.713Z,54.4
2018-07-02T00:02:50.232Z,54.9
2018-07-02T00:04:50.691Z,54.7
2018-07-02T00:06:50.767Z,54.4
2018-07-02T00:08:50.493Z,54.9
2018-07-02T00:10:50.733Z,55.7
2018-07-02T00:12:53.067Z,55.5
2018-07-02T00:14:50.570Z,55.4
2018-07-02T00:16:52.930Z,55.5
2018-07-02T00:18:50.353Z,55.7
2018-07-02T00:20:53.160Z,55.4
2018-07-02T00:22:50.933Z,55.5
2018-07-02T00:24:50.854Z,55.8
2018-07-02T00:26:50.387Z,56.3
2018-07-02T00:28:50.666Z,56.4
2018-07-02T00:30:50.941Z,56.4
2018-07-02T00:32:51.896Z,56.5
2018-07-02T00:34:50.536Z,56.9
2018-07-02T00:36:50.986Z,56.9
2018-07-02T00:38:50.348Z,57.4
2018-07-02T00:40:50.749Z,57.9
2018-07-02T00:42:52.132Z,57.5
2018-07-02T00:44:50.368Z,57.5
2018-07-02T00:46:50.746Z,58.0
2018-07-02T00:48:53.640Z,58.4
2018-07-02T00:50:50.258Z,58.6
2018-07-02T00:52:50.587Z,59.0
2018-07-02T00:54:51.717Z,58.9
2018-07-02T00:56:50.215Z,58.8
2018-07-02T00:58:53.464Z,58.9
2018-07-02T01:00:50.288Z,59.1
2018-07-02T01:02:50.674Z,60.3
2018-07-02T01:04:50.231Z,60.6
2018-07-02T01:06:50.665Z,60.8
2018-07-02T01:08:54.252Z,61.0
2018-07-02T01:10:50.186Z,60.7
2018-07-02T01:12:50.521Z,60.7
2018-07-02T01:14:51.085Z,60.7
2018-07-02T01:16:50.536Z,60.6
2018-07-02T01:18:50.805Z,60.6
2018-07-02T01:20:51.129Z,60.4
2018-07-02T01:22:50.426Z,60.6
2018-07-02T01:24:53.777Z,60.6
2018-07-02T01:26:50.539Z,61.4
2018-07-02T01:28:50.764Z,61.8
2018-07-02T01:30:54.300Z,61.8
2018-07-02T01:32:51.043Z,61.6
2018-07-02T01:34:50.645Z,61.5
2018-07-02T01:36:51.074Z,61.9
2018-07-02T01:38:50.265Z,62.3
2018-07-02T01:40:50.666Z,62.2
2018-07-02T01:42:50.896Z,61.9
2018-07-02T01:44:50.266Z,62.2
2018-07-02T01:46:51.651Z,63.0
2018-07-02T01:48:50.910Z,62.7
2018-07-02T01:50:50.220Z,62.7
2018-07-02T01:52:53.623Z,63.1
2018-07-02T01:54:50.481Z,62.9
2018-07-02T01:56:50.933Z,62.9
2018-07-02T01:58:50.159Z,63.0
2018-07-02T02:00:50.423Z,63.7
2018-07-02T02:02:50.647Z,63.6
2018-07-02T02:04:54.433Z,63.2
2018-07-02T02:06:50.368Z,63.6
2018-07-02T02:08:53.222Z,63.9
2018-07-02T02:10:50.825Z,64.3
2018-07-02T02:12:52.708Z,65.4
2018-07-02T02:14:50.240Z,65.1
2018-07-02T02:16:52.690Z,65.0
2018-07-02T02:18:50.499Z,65.1
2018-07-02T02:20:53.283Z,65.8
2018-07-02T02:22:51.801Z,65.8
2018-07-02T02:24:52.701Z,67.7
2018-07-02T02:26:51.016Z,67.2
2018-07-02T02:28:50.283Z,67.2
2018-07-02T02:30:50.508Z,66.4
2018-07-02T02:32:50.843Z,66.1
2018-07-02T02:34:50.256Z,67.1
2018-07-02T02:36:50.617Z,67.1
2018-07-02T02:38:50.891Z,67.7
2018-07-02T02:40:50.084Z,66.8
2018-07-02T02:42:50.302Z,66.5
2018-07-02T02:44:50.519Z,66.8
2018-07-02T02:46:50.938Z,67.0
2018-07-02T02:48:50.293Z,66.6
2018-07-02T02:50:50.525Z,66.9
2018-07-02T02:52:50.840Z,65.6
2018-07-02T02:54:51.026Z,66.2
2018-07-02T02:56:50.454Z,66.5
2018-07-02T02:58:50.957Z,67.3
2018-07-02T03:00:50.179Z,67.3
2018-07-02T03:02:50.413Z,66.8
2018-07-02T03:04:50.927Z,67.1
2018-07-02T03:06:53.556Z,67.2
2018-07-02T03:08:50.168Z,67.6
2018-07-02T03:10:52.981Z,67.6
2018-07-02T03:12:50.955Z,68.0
2018-07-02T03:14:53.235Z,67.4
2018-07-02T03:16:50.565Z,67.8
2018-07-02T03:18:52.783Z,68.0
2018-07-02T03:20:51.036Z,68.2
2018-07-02T03:22:50.343Z,68.6
2018-07-02T03:24:50.738Z,70.2
2018-07-02T03:26:50.244Z,69.1
2018-07-02T03:28:50.438Z,69.0
2018-07-02T03:30:50.670Z,69.0
2018-07-02T03:32:50.951Z,69.0
2018-07-02T03:34:50.391Z,69.8
2018-07-02T03:36:50.833Z,69.6
2018-07-02T03:38:50.228Z,69.0
2018-07-02T03:40:50.583Z,69.9
2018-07-02T03:42:51.362Z,70.0
2018-07-02T03:44:50.702Z,70.6
2018-07-02T03:46:52.604Z,69.4
2018-07-02T03:48:50.875Z,69.7
2018-07-02T03:50:52.187Z,70.1
2018-07-02T03:52:50.386Z,71.4
2018-07-02T03:54:53.130Z,70.5
2018-07-02T03:56:50.426Z,70.5
2018-07-02T03:58:53.396Z,69.7
2018-07-02T04:00:50.630Z,69.1
2018-07-02T04:02:54.178Z,69.7
2018-07-02T04:04:50.255Z,69.7
2018-07-02T04:06:54.043Z,69.4
2018-07-02T04:08:50.880Z,69.3
2018-07-02T04:10:52.530Z,69.2
2018-07-02T04:12:50.937Z,70.3
2018-07-02T04:14:52.745Z,69.3
2018-07-02T04:16:53.275Z,70.0
2018-07-02T04:18:53.719Z,68.9
2018-07-02T04:20:50.423Z,70.6
2018-07-02T04:22:50.687Z,69.8
2018-07-02T04:24:50.884Z,67.7
2018-07-02T04:26:53.195Z,69.5
2018-07-02T04:28:50.821Z,68.2
2018-07-02T04:30:51.023Z,66.0
2018-07-02T04:32:50.304Z,65.8
2018-07-02T04:34:50.728Z,65.8
2018-07-02T04:36:50.170Z,66.0
2018-07-02T04:38:50.358Z,65.5
2018-07-02T04:40:53.689Z,64.0
2018-07-02T04:42:53.662Z,63.9
2018-07-02T04:44:52.991Z,63.2
2018-07-02T04:46:54.414Z,61.4
2018-07-02T04:48:54.154Z,60.6
2018-07-02T04:50:52.821Z,60.3
2018-07-02T04:52:52.688Z,60.3
2018-07-02T04:54:53.779Z,59.9
2018-07-02T04:56:53.956Z,58.6
2018-07-02T04:58:54.134Z,56.6
2018-07-02T05:00:50.827Z,56.4
2018-07-02T05:02:50.885Z,55.6
2018-07-02T05:04:50.423Z,54.9
2018-07-02T05:06:50.544Z,54.2
2018-07-02T05:08:50.763Z,53.3
2018-07-02T05:10:50.810Z,53.2
2018-07-02T05:12:50.977Z,54.0
2018-07-02T05:14:50.062Z,52.6
2018-07-02T05:16:50.266Z,52.6
2018-07-02T05:18:50.325Z,51.5
2018-07-02T05:20:50.421Z,50.7
2018-07-02T05:22:50.556Z,51.6
2018-07-02T05:24:50.729Z,51.9
2018-07-02T05:26:49.968Z,51.0
2018-07-02T05:28:49.988Z,50.0
2018-07-02T05:30:50.077Z,51.0
2018-07-02T05:32:50.407Z,50.7
2018-07-02T05:34:50.643Z,50.1
2018-07-02T05:36:50.285Z,49.9
2018-07-02T05:38:50.681Z,48.9
2018-07-02T05:40:50.773Z,48.4
2018-07-02T05:42:50.871Z,48.8
2018-07-02T05:44:50.046Z,48.1
2018-07-02T05:46:50.225Z,48.1
2018-07-02T05:48:50.518Z,47.8
2018-07-02T05:50:50.597Z,47.8
2018-07-02T05:52:50.812Z,47.0
2018-07-02T05:54:51.436Z,47.3
2018-07-02T05:56:50.667Z,46.5
2018-07-02T05:58:50.685Z,46.4
2018-07-02T06:00:50.787Z,47.6
2018-07-02T06:02:50.880Z,46.2
2018-07-02T06:04:50.156Z,45.9
2018-07-02T06:06:50.386Z,45.7
2018-07-02T06:08:50.477Z,45.4
2018-07-02T06:10:50.592Z,45.2
2018-07-02T06:12:50.703Z,45.7
2018-07-02T06:14:50.763Z,45.0
2018-07-02T06:16:50.973Z,45.3
2018-07-02T06:18:50.065Z,44.9
2018-07-02T06:20:50.139Z,44.6
2018-07-02T06:22:50.274Z,44.7
2018-07-02T06:24:50.890Z,46.0
2018-07-02T06:26:50.230Z,46.0
2018-07-02T06:28:50.340Z,44.9
2018-07-02T06:30:50.449Z,44.3
2018-07-02T06:32:50.604Z,44.4
2018-07-02T06:34:49.942Z,44.8
2018-07-02T06:36:50.237Z,44.5
2018-07-02T06:38:50.483Z,44.0
2018-07-02T06:40:50.737Z,44.2
2018-07-02T06:42:50.851Z,44.0
2018-07-02T06:44:50.936Z,43.6
2018-07-02T06:46:50.098Z,43.6
2018-07-02T06:48:50.147Z,42.3
2018-07-02T06:50:50.417Z,44
2018-07-02T06:52:50.523Z,44
2018-07-02T06:54:50.678Z,44
2018-07-02T06:56:50.952Z,44
2018-07-02T06:58:50.599Z,44
2018-07-02T07:00:50.621Z,43
2018-07-02T07:02:50.668Z,44
2018-07-02T07:04:50.096Z,43
2018-07-02T07:06:50.326Z,43
2018-07-02T07:08:50.475Z,43
2018-07-02T07:10:50.608Z,43
2018-07-02T07:12:50.745Z,43
2018-07-02T07:14:50.850Z,42
2018-07-02T07:16:50.337Z,42
2018-07-02T07:18:50.486Z,42
2018-07-02T07:20:50.658Z,42
2018-07-02T07:22:50.766Z,42
2018-07-02T07:24:50.887Z,42
2018-07-02T07:26:50.079Z,42
2018-07-02T07:28:50.137Z,42
2018-07-02T07:30:50.177Z,42
2018-07-02T07:32:50.255Z,41
2018-07-02T07:34:50.644Z,41
2018-07-02T07:36:50.825Z,41
2018-07-02T07:38:50.931Z,41
2018-07-02T07:40:51.048Z,41
2018-07-02T07:42:50.203Z,41
2018-07-02T07:44:50.831Z,41
2018-07-02T07:46:50.686Z,41
2018-07-02T07:48:50.756Z,41
2018-07-02T07:50:50.866Z,41
2018-07-02T07:52:50.975Z,40
2018-07-02T07:54:50.027Z,40
2018-07-02T07:56:50.229Z,40
2018-07-02T07:58:50.297Z,40
2018-07-02T08:00:50.379Z,39
2018-07-02T08:02:50.437Z,39
2018-07-02T08:04:50.888Z,39
2018-07-02T08:06:50.103Z,39
2018-07-02T08:08:50.221Z,39
2018-07-02T08:10:50.294Z,39
2018-07-02T08:12:50.451Z,39
2018-07-02T08:14:50.469Z,39
2018-07-02T08:16:50.725Z,39
2018-07-02T08:18:51.279Z,39
2018-07-02T08:20:50.454Z,39
2018-07-02T08:22:50.497Z,39
2018-07-02T08:24:50.680Z,39
2018-07-02T08:26:50.830Z,39
2018-07-02T08:28:49.956Z,39
2018-07-02T08:30:50.011Z,39
2018-07-02T08:32:50.493Z,38
2018-07-02T08:34:50.841Z,38
2018-07-02T08:36:50.000Z,38
2018-07-02T08:38:50.144Z,38
2018-07-02T08:40:50.203Z,37
2018-07-02T08:42:50.277Z,37
2018-07-02T08:44:50.340Z,37
2018-07-02T08:46:51.009Z,37
2018-07-02T08:48:50.214Z,37
2018-07-02T08:50:50.265Z,37
2018-07-02T08:52:51.046Z,37
2018-07-02T08:54:50.149Z,37
2018-07-02T08:56:50.363Z,37
2018-07-02T08:58:50.492Z,37
2018-07-02T09:00:50.532Z,37
2018-07-02T09:02:50.656Z,37
2018-07-02T09:04:50.906Z,37
2018-07-02T09:06:50.490Z,37
2018-07-02T09:08:50.593Z,36
2018-07-02T09:10:50.623Z,37
2018-07-02T09:12:50.864Z,36
2018-07-02T09:14:50.103Z,36
2018-07-02T09:16:50.210Z,37
2018-07-02T09:18:50.384Z,37
2018-07-02T09:20:50.699Z,37
2018-07-02T09:22:50.786Z,37
2018-07-02T09:24:50.854Z,37
2018-07-02T09:26:50.076Z,37
2018-07-02T09:28:50.183Z,37
2018-07-02T09:30:50.404Z,37
2018-07-02T09:32:50.806Z,37
2018-07-02T09:34:50.429Z,37
2018-07-02T09:36:50.591Z,37
2018-07-02T09:38:50.954Z,37
2018-07-02T09:40:50.301Z,37
2018-07-02T09:42:50.409Z,37
2018-07-02T09:44:50.574Z,36
2018-07-02T09:46:50.803Z,37
2018-07-02T09:48:50.025Z,36
2018-07-02T09:50:50.258Z,36
2018-07-02T09:52:50.375Z,36
2018-07-02T09:54:50.535Z,36
2018-07-02T09:56:50.907Z,36
2018-07-02T09:58:50.251Z,36
2018-07-02T10:00:50.358Z,36
2018-07-02T10:02:50.496Z,36
2018-07-02T10:04:50.952Z,36
2018-07-02T10:06:50.316Z,35
2018-07-02T10:08:50.362Z,35
2018-07-02T10:10:50.581Z,35
2018-07-02T10:12:50.708Z,35
2018-07-02T10:14:50.767Z,36
2018-07-02T10:16:50.890Z,36
2018-07-02T10:18:50.041Z,35
2018-07-02T10:20:50.169Z,35
2018-07-02T10:22:50.343Z,35
2018-07-02T10:24:50.555Z,35
2018-07-02T10:26:50.881Z,35
2018-07-02T10:28:50.851Z,35
2018-07-02T10:30:50.675Z,35
2018-07-02T10:32:50.933Z,35
2018-07-02T10:34:50.837Z,35
2018-07-02T10:36:50.246Z,35
2018-07-02T10:38:50.582Z,35
2018-07-02T10:40:50.827Z,34
2018-07-02T10:42:50.933Z,35
2018-07-02T10:44:50.073Z,34
2018-07-02T10:46:50.264Z,34
2018-07-02T10:48:50.340Z,34
2018-07-02T10:50:50.474Z,34
2018-07-02T10:52:50.706Z,34
2018-07-02T10:54:50.886Z,34
2018-07-02T10:56:50.137Z,34
2018-07-02T10:58:50.191Z,34
2018-07-02T11:00:50.337Z,34
2018-07-02T11:02:50.430Z,33
2018-07-02T11:04:50.744Z,34
2018-07-02T11:06:50.926Z,33
2018-07-02T11:08:50.082Z,33
2018-07-02T11:10:50.180Z,34
2018-07-02T11:12:50.420Z,33
2018-07-02T11:14:50.574Z,33
2018-07-02T11:16:50.699Z,33
2018-07-02T11:18:50.942Z,34
2018-07-02T11:20:50.051Z,34
2018-07-02T11:22:50.139Z,34
2018-07-02T11:24:50.201Z,34
2018-07-02T11:26:50.385Z,32
2018-07-02T11:28:50.483Z,33
2018-07-02T11:30:50.549Z,32
2018-07-02T11:32:50.711Z,32
2018-07-02T11:34:50.149Z,32
2018-07-02T11:36:50.317Z,32
2018-07-02T11:38:50.449Z,31
2018-07-02T11:40:50.595Z,31
2018-07-02T11:42:50.610Z,31
2018-07-02T11:44:50.824Z,31
2018-07-02T11:46:50.030Z,31
2018-07-02T11:48:50.058Z,31
2018-07-02T11:50:50.431Z,31
2018-07-02T11:52:50.462Z,32
2018-07-02T11:54:50.553Z,32
2018-07-02T11:56:50.717Z,31
2018-07-02T11:58:50.897Z,31
2018-07-02T12:00:50.035Z,31
2018-07-02T12:02:50.185Z,31
2018-07-02T12:04:50.668Z,31
2018-07-02T12:06:49.987Z,30
2018-07-02T12:08:50.103Z,30
2018-07-02T12:10:50.178Z,31
2018-07-02T12:12:50.308Z,30
2018-07-02T12:14:50.385Z,30
2018-07-02T12:16:50.572Z,30
2018-07-02T12:18:50.730Z,29
2018-07-02T12:20:50.823Z,29
2018-07-02T12:22:50.922Z,29
2018-07-02T12:24:50.015Z,29
2018-07-02T12:26:50.221Z,30
2018-07-02T12:28:50.352Z,30
2018-07-02T12:30:50.584Z,30
2018-07-02T12:32:50.752Z,30
2018-07-02T12:34:50.940Z,30
2018-07-02T12:36:50.336Z,30
2018-07-02T12:38:50.465Z,30
2018-07-02T12:40:50.534Z,30
2018-07-02T12:42:50.683Z,29
2018-07-02T12:44:50.778Z,29
2018-07-02T12:46:50.914Z,29
2018-07-02T12:48:50.136Z,29
2018-07-02T12:50:50.221Z,29
2018-07-02T12:52:50.364Z,29
2018-07-02T12:54:50.402Z,29
2018-07-02T12:56:50.602Z,29
2018-07-02T12:58:50.715Z,28
2018-07-02T13:00:50.812Z,29
2018-07-02T13:02:50.916Z,29
2018-07-02T13:04:50.127Z,29
2018-07-02T13:06:50.414Z,29
2018-07-02T13:08:50.457Z,29
2018-07-02T13:10:50.628Z,28
2018-07-02T13:12:50.720Z,28
2018-07-02T13:14:50.925Z,29
2018-07-02T13:16:50.124Z,29
2018-07-02T13:18:50.266Z,28
2018-07-02T13:20:50.355Z,28
2018-07-02T13:22:50.388Z,28
2018-07-02T13:24:50.755Z,28
2018-07-02T13:26:51.320Z,28
2018-07-02T13:28:50.391Z,28
2018-07-02T13:30:50.689Z,28
2018-07-02T13:32:50.763Z,28
2018-07-02T13:34:50.027Z,28
2018-07-02T13:36:50.239Z,28
2018-07-02T13:38:50.451Z,28
2018-07-02T13:40:50.539Z,28
2018-07-02T13:42:50.648Z,28
2018-07-02T13:44:50.731Z,28
2018-07-02T13:46:50.902Z,28
2018-07-02T13:48:50.202Z,28
2018-07-02T13:50:50.300Z,28
2018-07-02T13:52:50.418Z,28
2018-07-02T13:54:50.619Z,28
2018-07-02T13:56:50.871Z,28
2018-07-02T13:58:50.928Z,28
2018-07-02T14:00:50.011Z,28
2018-07-02T14:02:50.137Z,28
2018-07-02T14:04:50.429Z,27
2018-07-02T14:06:50.774Z,27
2018-07-02T14:08:50.846Z,27
2018-07-02T14:10:50.026Z,27
2018-07-02T14:12:50.188Z,27
2018-07-02T14:14:50.274Z,27
2018-07-02T14:16:50.512Z,27
2018-07-02T14:18:50.610Z,28
2018-07-02T14:20:50.773Z,27
2018-07-02T14:22:50.900Z,27
2018-07-02T14:24:50.336Z,27
2018-07-02T14:26:50.596Z,27
2018-07-02T14:28:50.767Z,27
2018-07-02T14:30:50.866Z,27
2018-07-02T14:32:50.370Z,27
2018-07-02T14:34:50.773Z,27
2018-07-02T14:36:50.941Z,27
2018-07-02T14:38:50.022Z,27
2018-07-02T14:40:50.086Z,27
2018-07-02T14:42:50.141Z,27
2018-07-02T14:44:51.339Z,27
2018-07-02T14:46:50.780Z,27
2018-07-02T14:48:50.854Z,27
2018-07-02T14:50:50.187Z,27
2018-07-02T14:52:50.421Z,27
2018-07-02T14:54:50.591Z,26
2018-07-02T14:56:50.753Z,27
2018-07-02T14:58:50.801Z,27
2018-07-02T15:00:50.841Z,27
2018-07-02T15:02:50.010Z,27
2018-07-02T15:04:50.382Z,27
2018-07-02T15:06:50.557Z,27
2018-07-02T15:08:50.656Z,27
2018-07-02T15:10:50.684Z,27
2018-07-02T15:12:50.914Z,27
2018-07-02T15:14:49.966Z,27
2018-07-02T15:16:50.241Z,27
2018-07-02T15:18:50.313Z,27
2018-07-02T15:20:50.358Z,27
2018-07-02T15:22:50.504Z,27
2018-07-02T15:24:50.581Z,27
2018-07-02T15:26:50.803Z,27
2018-07-02T15:28:50.820Z,27
2018-07-02T15:30:50.869Z,27
2018-07-02T15:32:50.963Z,27
2018-07-02T15:34:50.541Z,26
2018-07-02T15:36:50.782Z,26
2018-07-02T15:38:50.839Z,26
2018-07-02T15:40:50.936Z,26
2018-07-02T15:42:50.066Z,26
2018-07-02T15:44:50.171Z,26
2018-07-02T15:46:50.905Z,25
2018-07-02T15:48:50.061Z,26
2018-07-02T15:50:50.287Z,26
2018-07-02T15:52:50.331Z,26
2018-07-02T15:54:50.414Z,26
2018-07-02T15:56:50.626Z,26
2018-07-02T15:58:50.777Z,26
2018-07-02T16:00:50.893Z,26
2018-07-02T16:02:50.983Z,25
2018-07-02T16:04:50.218Z,26
2018-07-02T16:06:50.430Z,25
2018-07-02T16:08:50.537Z,26
2018-07-02T16:10:50.708Z,26
2018-07-02T16:12:50.807Z,25
2018-07-02T16:14:50.038Z,25
2018-07-02T16:16:50.210Z,25
2018-07-02T16:18:50.407Z,26
2018-07-02T16:20:50.507Z,26
2018-07-02T16:22:50.788Z,25
2018-07-02T16:24:49.985Z,26
2018-07-02T16:26:50.219Z,26
2018-07-02T16:28:50.554Z,25
2018-07-02T16:30:50.650Z,25
2018-07-02T16:32:50.761Z,24
2018-07-02T16:34:50.235Z,24
2018-07-02T16:36:50.574Z,24
2018-07-02T16:38:50.683Z,24
2018-07-02T16:40:50.738Z,24
2018-07-02T16:42:50.959Z,25
2018-07-02T16:44:50.191Z,24
2018-07-02T16:46:50.391Z,24
2018-07-02T16:48:50.543Z,24
2018-07-02T16:50:50.627Z,24
2018-07-02T16:52:50.745Z,25
2018-07-02T16:54:50.838Z,24
2018-07-02T16:56:50.123Z,24
2018-07-02T16:58:50.251Z,25
2018-07-02T17:00:50.462Z,25
2018-07-02T17:02:50.497Z,24
2018-07-02T17:04:50.745Z,23
2018-07-02T17:06:50.083Z,23
2018-07-02T17:08:50.206Z,23
2018-07-02T17:10:50.396Z,24
2018-07-02T17:12:50.680Z,24
2018-07-02T17:14:50.757Z,24
2018-07-02T17:16:49.998Z,24
2018-07-02T17:18:50.122Z,24
2018-07-02T17:20:50.206Z,23
2018-07-02T17:22:50.398Z,23
2018-07-02T17:24:50.559Z,19.7
2018-07-02T17:26:50.917Z,20.3
2018-07-02T17:28:49.955Z,20.7
2018-07-02T17:30:50.096Z,21.3
2018-07-02T17:32:50.290Z,22.0
2018-07-02T17:34:50.488Z,22.4
2018-07-02T17:36:50.029Z,22.6
2018-07-02T17:38:50.244Z,22.7
2018-07-02T17:40:50.335Z,23.3
2018-07-02T17:42:50.436Z,23.8
2018-07-02T17:44:50.540Z,23.6
2018-07-02T17:46:50.802Z,23.9
2018-07-02T17:48:50.891Z,23.8
2018-07-02T17:50:49.968Z,24.2
2018-07-02T17:52:50.070Z,23.9
2018-07-02T17:54:50.189Z,24.1
2018-07-02T17:56:50.393Z,24.4
2018-07-02T17:58:50.626Z,24.5
2018-07-02T18:00:50.723Z,25.0
2018-07-02T18:02:50.878Z,24.8
2018-07-02T18:04:50.222Z,24.3
2018-07-02T18:06:50.504Z,25.1
2018-07-02T18:08:50.808Z,25.1
2018-07-02T18:10:50.974Z,25.1
2018-07-02T18:12:50.731Z,25.4
2018-07-02T18:14:50.934Z,25.0
2018-07-02T18:16:50.065Z,25.0
2018-07-02T18:18:50.239Z,25.3
2018-07-02T18:20:50.381Z,25.6
2018-07-02T18:22:50.442Z,24.9
2018-07-02T18:24:50.571Z,25.0
2018-07-02T18:26:51.344Z,25.5
2018-07-02T18:28:50.836Z,25.5
2018-07-02T18:30:50.141Z,25.4
2018-07-02T18:32:50.205Z,25.8
2018-07-02T18:34:50.533Z,25.7
2018-07-02T18:36:50.922Z,25.7
2018-07-02T18:38:50.016Z,26.3
2018-07-02T18:40:50.103Z,26.3
2018-07-02T18:42:50.297Z,26.6
2018-07-02T18:44:50.207Z,26.5
2018-07-02T18:46:50.250Z,26.7
2018-07-02T18:48:50.413Z,27.1
2018-07-02T18:50:50.491Z,27.4
2018-07-02T18:52:50.568Z,27.5
2018-07-02T18:54:50.642Z,27.2
2018-07-02T18:56:50.801Z,27.3
2018-07-02T18:58:50.864Z,28.1
2018-07-02T19:00:49.936Z,27.9
2018-07-02T19:02:50.157Z,28.2
2018-07-02T19:04:50.738Z,28.4
2018-07-02T19:06:50.076Z,28.6
2018-07-02T19:08:50.174Z,29.1
2018-07-02T19:10:50.250Z,29.1
2018-07-02T19:12:50.394Z,29.6
2018-07-02T19:14:50.622Z,29.9
2018-07-02T19:16:50.742Z,30.3
2018-07-02T19:18:50.816Z,30.5
2018-07-02T19:20:50.928Z,30.6
2018-07-02T19:22:50.132Z,31.1
2018-07-02T19:24:50.198Z,31.9
2018-07-02T19:26:50.354Z,31.3
2018-07-02T19:28:50.420Z,31.8
2018-07-02T19:30:50.513Z,31.9
2018-07-02T19:32:50.539Z,32.4
2018-07-02T19:34:50.018Z,33.3
2018-07-02T19:36:50.276Z,33.8
2018-07-02T19:38:50.321Z,33.8
2018-07-02T19:40:50.957Z,33.8
2018-07-02T19:42:50.092Z,34.1
2018-07-02T19:44:50.198Z,34.5
2018-07-02T19:46:50.504Z,35.3
2018-07-02T19:48:50.565Z,36.0
2018-07-02T19:50:50.692Z,35.8
2018-07-02T19:52:50.740Z,36.8
2018-07-02T19:54:50.984Z,36.5
2018-07-02T19:56:50.737Z,36.4
2018-07-02T19:58:50.917Z,36.3
2018-07-02T20:00:49.970Z,37.0
2018-07-02T20:02:50.790Z,36.3
2018-07-02T20:04:50.284Z,36.9
2018-07-02T20:06:51.419Z,36.6
2018-07-02T20:08:50.736Z,36.7
2018-07-02T20:10:50.847Z,36.9
2018-07-02T20:12:50.946Z,36.7
2018-07-02T20:14:50.045Z,36.6
2018-07-02T20:16:50.246Z,37.1
2018-07-02T20:18:50.668Z,37.4
2018-07-02T20:20:50.737Z,38.3
2018-07-02T20:22:50.836Z,37.8
2018-07-02T20:24:50.900Z,38.5
2018-07-02T20:26:50.223Z,38.2
2018-07-02T20:28:50.313Z,38.3
2018-07-02T20:30:50.440Z,38.3
2018-07-02T20:32:50.558Z,38.7
2018-07-02T20:34:51.342Z,38.4
2018-07-02T20:36:50.608Z,38.8
2018-07-02T20:38:50.646Z,38.9
2018-07-02T20:40:50.867Z,38.6
2018-07-02T20:42:50.929Z,38.5
2018-07-02T20:44:50.597Z,39.0
2018-07-02T20:46:50.856Z,38.6
2018-07-02T20:48:50.890Z,38.7
2018-07-02T20:50:50.003Z,38.9
2018-07-02T20:52:50.132Z,38.8
2018-07-02T20:54:50.218Z,39.1
2018-07-02T20:56:50.521Z,39.7
2018-07-02T20:58:50.590Z,39.3
2018-07-02T21:00:50.730Z,39.2
2018-07-02T21:02:50.854Z,39.3
2018-07-02T21:04:50.173Z,39.7
2018-07-02T21:06:50.444Z,39.9
2018-07-02T21:08:50.707Z,40.0
2018-07-02T21:10:50.885Z,40.9
2018-07-02T21:12:50.043Z,40.9
2018-07-02T21:14:50.183Z,40.7
2018-07-02T21:16:50.419Z,40.9
2018-07-02T21:18:50.684Z,41.5
2018-07-02T21:20:50.817Z,41.4
2018-07-02T21:22:49.973Z,42.3
2018-07-02T21:24:50.113Z,43.5
2018-07-02T21:26:50.374Z,43.4
2018-07-02T21:28:50.586Z,43.1
2018-07-02T21:30:50.775Z,43.3
2018-07-02T21:32:50.891Z,42.9
2018-07-02T21:34:50.481Z,42.9
2018-07-02T21:36:50.721Z,43.4
2018-07-02T21:38:51.078Z,43.0
2018-07-02T21:40:50.251Z,42.8
2018-07-02T21:42:50.458Z,42.4
2018-07-02T21:44:50.693Z,42.7
2018-07-02T21:46:50.880Z,43.7
2018-07-02T21:48:50.149Z,43.4
2018-07-02T21:50:50.289Z,43.1
2018-07-02T21:52:50.367Z,43.5
2018-07-02T21:54:50.472Z,43.3
2018-07-02T21:56:50.916Z,43.5
2018-07-02T21:58:49.980Z,43.6
2018-07-02T22:00:50.070Z,43.5
2018-07-02T22:02:50.146Z,43.4
2018-07-02T22:04:50.388Z,43.7
2018-07-02T22:06:50.618Z,43.7
2018-07-02T22:08:50.695Z,44.0
2018-07-02T22:10:51.108Z,44.9
2018-07-02T22:12:50.215Z,44.6
2018-07-02T22:14:50.279Z,44.6
2018-07-02T22:16:50.548Z,44.4
2018-07-02T22:18:50.688Z,45.0
2018-07-02T22:20:50.758Z,44.3
2018-07-02T22:22:50.888Z,44.1
2018-07-02T22:24:50.940Z,44.2
2018-07-02T22:26:50.341Z,44.4
2018-07-02T22:28:50.454Z,44.1
2018-07-02T22:30:50.535Z,43.9
2018-07-02T22:32:50.653Z,44.3
2018-07-02T22:34:50.898Z,43.8
2018-07-02T22:36:50.149Z,43.6
2018-07-02T22:38:50.268Z,43.3
2018-07-02T22:40:50.377Z,43.3
2018-07-02T22:42:50.619Z,43.7
2018-07-02T22:44:50.648Z,43.6
2018-07-02T22:46:49.996Z,43.4
2018-07-02T22:48:50.217Z,43.4
2018-07-02T22:50:50.279Z,43.5
2018-07-02T22:52:50.380Z,44.0
2018-07-02T22:54:50.424Z,44.2
2018-07-02T22:56:50.659Z,43.9
2018-07-02T22:58:50.761Z,44.0
2018-07-02T23:00:50.872Z,44.6
2018-07-02T23:02:50.110Z,44.5
2018-07-02T23:04:50.348Z,45.9
2018-07-02T23:06:50.580Z,45.6
2018-07-02T23:08:50.781Z,46.4
2018-07-02T23:10:50.818Z,46.4
2018-07-02T23:12:50.921Z,46.6
2018-07-02T23:14:50.008Z,46.7
2018-07-02T23:16:50.245Z,46.8
2018-07-02T23:18:50.350Z,47.8
2018-07-02T23:20:50.518Z,47.8
2018-07-02T23:22:50.631Z,48.1
2018-07-02T23:24:50.826Z,48.1
2018-07-02T23:26:50.043Z,48.3
2018-07-02T23:28:50.179Z,48.8
2018-07-02T23:30:50.260Z,48.4
2018-07-02T23:32:50.391Z,48.0
2018-07-02T23:34:50.736Z,48.4
2018-07-02T23:36:50.103Z,48.4
2018-07-02T23:38:50.380Z,49.0
2018-07-02T23:40:50.475Z,49.5
2018-07-02T23:42:50.648Z,49.5
2018-07-02T23:44:50.704Z,49.5
2018-07-02T23:46:50.879Z,49.3
2018-07-02T23:48:50.952Z,48.7
2018-07-02T23:50:50.029Z,49.3
2018-07-02T23:52:50.237Z,50.2
2018-07-02T23:54:50.302Z,50.9
2018-07-02T23:56:50.465Z,51.3
2018-07-02T23:58:50.561Z,51.0
